createdAt,value
2016-07-26T00:00:31.059Z,-73
2016-07-26T00:01:30.991Z,-73
2016-07-26T00:02:30.879Z,-72
2016-07-26T00:04:30.881Z,-75
2016-07-26T00:05:30.989Z,-72
2016-07-26T00:06:31.618Z,-72
2016-07-26T00:07:30.914Z,-73
2016-07-26T00:08:32.659Z,-72
2016-07-26T00:09:30.914Z,-73
2016-07-26T00:10:30.951Z,-72
2016-07-26T00:11:30.931Z,-73
2016-07-26T00:12:31.253Z,-72
2016-07-26T00:13:30.902Z,-73
2016-07-26T00:14:30.887Z,-73
2016-07-26T00:27:30.775Z,-73
2016-07-26T00:27:47.965Z,-73
2016-07-26T00:28:47.851Z,-72
2016-07-26T00:29:47.921Z,-73
2016-07-26T00:30:47.871Z,-72
2016-07-26T00:31:47.931Z,-72
2016-07-26T00:32:47.951Z,-72
2016-07-26T00:33:46.550Z,-73
2016-07-26T00:34:47.885Z,-73
2016-07-26T00:35:48.823Z,-72
2016-07-26T00:36:48.092Z,-72
2016-07-26T00:37:47.928Z,-73
2016-07-26T00:38:47.944Z,-72
2016-07-26T00:39:48.635Z,-72
2016-07-26T00:40:48.443Z,-72
2016-07-26T00:41:47.920Z,-73
2016-07-26T00:42:47.867Z,-72
2016-07-26T00:43:50.351Z,-72
2016-07-26T00:44:47.819Z,-72
2016-07-26T00:45:47.962Z,-73
2016-07-26T00:46:48.003Z,-72
2016-07-26T00:47:47.977Z,-72
2016-07-26T00:48:46.462Z,-72
2016-07-26T00:49:47.919Z,-72
2016-07-26T00:50:47.961Z,-72
2016-07-26T00:51:47.914Z,-72
2016-07-26T00:52:47.933Z,-72
2016-07-26T00:53:50.081Z,-72
2016-07-26T00:54:47.873Z,-72
2016-07-26T00:55:47.892Z,-72
2016-07-26T00:56:47.878Z,-71
2016-07-26T00:57:47.997Z,-74
2016-07-26T00:58:47.897Z,-72
2016-07-26T00:59:47.902Z,-71
2016-07-26T01:00:47.928Z,-72
2016-07-26T01:01:47.861Z,-71
2016-07-26T01:02:47.898Z,-72
2016-07-26T01:03:45.866Z,-71
2016-07-26T01:04:47.872Z,-73
2016-07-26T01:05:47.930Z,-73
2016-07-26T01:06:48.272Z,-71
2016-07-26T01:07:47.940Z,-73
2016-07-26T01:08:47.908Z,-74
2016-07-26T01:09:47.951Z,-74
2016-07-26T01:10:47.930Z,-73
2016-07-26T01:11:47.954Z,-74
2016-07-26T01:12:47.860Z,-71
2016-07-26T01:13:49.660Z,-74
2016-07-26T01:26:50.417Z,-72
2016-07-26T01:27:07.533Z,-72
2016-07-26T01:28:08.053Z,-72
2016-07-26T01:29:08.103Z,-73
2016-07-26T01:42:08.029Z,-72
2016-07-26T01:42:25.878Z,-72
2016-07-26T01:43:25.166Z,-72
2016-07-26T01:44:25.111Z,-72
2016-07-26T01:45:25.107Z,-72
2016-07-26T01:46:25.171Z,-72
2016-07-26T01:47:25.216Z,-72
2016-07-26T01:48:26.540Z,-73
2016-07-26T01:49:25.130Z,-75
2016-07-26T01:50:25.211Z,-72
2016-07-26T01:51:26.270Z,-72
2016-07-26T01:52:25.628Z,-72
2016-07-26T01:53:25.070Z,-74
2016-07-26T01:54:25.167Z,-72
2016-07-26T01:55:25.196Z,-74
2016-07-26T01:56:25.946Z,-71
2016-07-26T01:57:25.075Z,-74
2016-07-26T01:58:25.193Z,-74
2016-07-26T01:59:25.142Z,-71
2016-07-26T02:00:25.123Z,-71
2016-07-26T02:01:25.186Z,-71
2016-07-26T02:02:25.130Z,-73
2016-07-26T02:03:25.175Z,-74
2016-07-26T02:04:25.094Z,-73
2016-07-26T02:05:25.178Z,-71
2016-07-26T02:06:25.140Z,-74
2016-07-26T02:07:25.192Z,-74
2016-07-26T02:08:25.847Z,-74
2016-07-26T02:09:26.386Z,-74
2016-07-26T02:10:25.163Z,-74
2016-07-26T02:11:25.129Z,-73
2016-07-26T02:12:25.165Z,-74
2016-07-26T02:13:25.178Z,-71
2016-07-26T02:14:25.248Z,-71
2016-07-26T02:15:25.078Z,-73
2016-07-26T02:16:25.276Z,-73
2016-07-26T02:17:25.158Z,-74
2016-07-26T02:18:25.111Z,-74
2016-07-26T02:19:25.418Z,-73
2016-07-26T02:20:25.125Z,-73
2016-07-26T02:21:29.861Z,-73
2016-07-26T02:22:25.095Z,-74
2016-07-26T02:23:25.139Z,-74
2016-07-26T02:24:25.121Z,-73
2016-07-26T02:25:25.147Z,-73
2016-07-26T02:26:25.352Z,-73
2016-07-26T02:27:25.058Z,-74
2016-07-26T02:28:25.225Z,-74
2016-07-26T02:29:25.669Z,-74
2016-07-26T02:30:25.219Z,-73
2016-07-26T02:31:25.091Z,-73
2016-07-26T02:32:25.149Z,-73
2016-07-26T02:33:25.309Z,-73
2016-07-26T02:34:25.264Z,-73
2016-07-26T02:35:25.089Z,-73
2016-07-26T02:36:25.121Z,-73
2016-07-26T02:37:25.257Z,-73
2016-07-26T02:38:25.360Z,-73
2016-07-26T02:39:25.175Z,-73
2016-07-26T02:40:25.329Z,-72
2016-07-26T02:41:25.262Z,-73
2016-07-26T02:42:25.133Z,-73
2016-07-26T02:43:26.830Z,-73
2016-07-26T02:44:25.823Z,-72
2016-07-26T02:45:25.654Z,-72
2016-07-26T02:46:25.790Z,-74
2016-07-26T02:47:26.542Z,-72
2016-07-26T02:48:25.116Z,-72
2016-07-26T02:49:25.347Z,-71
2016-07-26T02:50:26.549Z,-74
2016-07-26T02:51:25.082Z,-72
2016-07-26T02:52:25.962Z,-74
2016-07-26T02:53:25.073Z,-72
2016-07-26T02:54:25.231Z,-72
2016-07-26T02:55:25.140Z,-74
2016-07-26T02:56:25.925Z,-74
2016-07-26T02:57:25.110Z,-73
2016-07-26T02:58:25.158Z,-74
2016-07-26T02:59:25.788Z,-74
2016-07-26T03:00:27.111Z,-74
2016-07-26T03:01:25.145Z,-73
2016-07-26T03:02:25.134Z,-74
2016-07-26T03:03:25.081Z,-71
2016-07-26T03:04:23.655Z,-71
2016-07-26T03:05:25.754Z,-71
2016-07-26T03:06:25.242Z,-73
2016-07-26T03:07:25.135Z,-71
2016-07-26T03:08:25.170Z,-71
2016-07-26T03:09:25.157Z,-71
2016-07-26T03:10:25.156Z,-73
2016-07-26T03:11:25.197Z,-71
2016-07-26T03:12:25.295Z,-73
2016-07-26T03:13:25.716Z,-73
2016-07-26T03:14:25.474Z,-73
2016-07-26T03:15:25.127Z,-73
2016-07-26T03:16:25.134Z,-73
2016-07-26T03:17:26.630Z,-73
2016-07-26T03:18:25.298Z,-73
2016-07-26T03:19:29.009Z,-74
2016-07-26T03:20:25.125Z,-72
2016-07-26T03:21:25.169Z,-72
2016-07-26T03:22:25.084Z,-72
2016-07-26T03:23:25.223Z,-72
2016-07-26T03:24:25.122Z,-72
2016-07-26T03:25:25.307Z,-72
2016-07-26T03:26:25.124Z,-72
2016-07-26T03:27:25.146Z,-72
2016-07-26T03:28:25.606Z,-72
2016-07-26T03:29:25.204Z,-72
2016-07-26T03:30:25.170Z,-72
2016-07-26T03:31:25.159Z,-72
2016-07-26T03:32:25.357Z,-72
2016-07-26T03:33:25.778Z,-72
2016-07-26T03:34:24.741Z,-71
2016-07-26T03:35:25.175Z,-71
2016-07-26T03:36:25.156Z,-72
2016-07-26T03:37:25.214Z,-72
2016-07-26T03:38:25.206Z,-72
2016-07-26T03:39:25.141Z,-72
2016-07-26T03:40:25.261Z,-72
2016-07-26T03:41:25.520Z,-72
2016-07-26T03:42:25.240Z,-72
2016-07-26T03:43:25.215Z,-74
2016-07-26T03:44:25.292Z,-74
2016-07-26T03:45:25.176Z,-74
2016-07-26T03:46:25.170Z,-74
2016-07-26T03:47:25.648Z,-71
2016-07-26T03:48:25.233Z,-74
2016-07-26T03:49:23.201Z,-74
2016-07-26T03:50:25.171Z,-72
2016-07-26T03:51:25.231Z,-74
2016-07-26T03:52:25.261Z,-72
2016-07-26T03:53:25.154Z,-72
2016-07-26T03:54:25.401Z,-74
2016-07-26T03:55:25.174Z,-72
2016-07-26T03:56:25.198Z,-74
2016-07-26T03:57:25.159Z,-74
2016-07-26T03:58:25.254Z,-71
2016-07-26T03:59:25.255Z,-71
2016-07-26T04:00:25.442Z,-72
2016-07-26T04:01:27.388Z,-76
2016-07-26T04:02:25.229Z,-71
2016-07-26T04:03:25.548Z,-73
2016-07-26T04:04:23.774Z,-71
2016-07-26T04:05:25.176Z,-71
2016-07-26T04:06:25.219Z,-73
2016-07-26T04:07:25.133Z,-71
2016-07-26T04:08:25.158Z,-73
2016-07-26T04:09:25.209Z,-71
2016-07-26T04:10:25.206Z,-74
2016-07-26T04:11:25.718Z,-73
2016-07-26T04:12:25.184Z,-71
2016-07-26T04:13:25.245Z,-73
2016-07-26T04:14:25.195Z,-73
2016-07-26T04:15:25.166Z,-73
2016-07-26T04:16:25.206Z,-73
2016-07-26T04:17:25.209Z,-73
2016-07-26T04:18:25.167Z,-73
2016-07-26T04:20:25.203Z,-73
2016-07-26T04:21:25.317Z,-70
2016-07-26T04:22:25.238Z,-73
2016-07-26T04:23:25.183Z,-73
2016-07-26T04:24:25.190Z,-73
2016-07-26T04:25:25.174Z,-73
2016-07-26T04:26:25.178Z,-73
2016-07-26T04:27:25.214Z,-73
2016-07-26T04:28:25.283Z,-71
2016-07-26T04:29:25.264Z,-70
2016-07-26T04:30:25.414Z,-73
2016-07-26T04:31:25.253Z,-73
2016-07-26T04:32:25.190Z,-73
2016-07-26T04:33:25.262Z,-70
2016-07-26T04:35:25.230Z,-71
2016-07-26T04:36:25.283Z,-70
2016-07-26T04:49:40.927Z,-73
2016-07-26T04:50:42.209Z,-73
2016-07-26T04:51:41.578Z,-73
2016-07-26T04:52:41.635Z,-70
2016-07-26T04:53:41.472Z,-70
2016-07-26T04:54:41.400Z,-71
2016-07-26T04:55:41.404Z,-70
2016-07-26T04:56:41.482Z,-71
2016-07-26T04:57:41.467Z,-70
2016-07-26T04:58:41.474Z,-70
2016-07-26T04:59:41.477Z,-70
2016-07-26T05:00:41.502Z,-71
2016-07-26T05:01:41.470Z,-71
2016-07-26T05:02:41.452Z,-70
2016-07-26T05:03:41.481Z,-71
2016-07-26T05:04:41.033Z,-70
2016-07-26T05:05:41.524Z,-71
2016-07-26T05:06:42.437Z,-71
2016-07-26T05:07:41.461Z,-71
2016-07-26T05:08:41.464Z,-71
2016-07-26T05:09:41.476Z,-71
2016-07-26T05:10:41.570Z,-72
2016-07-26T05:11:41.780Z,-72
2016-07-26T05:12:41.535Z,-72
2016-07-26T05:13:42.198Z,-72
2016-07-26T05:14:41.723Z,-71
2016-07-26T05:15:41.615Z,-70
2016-07-26T05:16:41.467Z,-71
2016-07-26T05:17:41.440Z,-71
2016-07-26T05:18:41.514Z,-71
2016-07-26T05:19:41.018Z,-71
2016-07-26T05:20:41.557Z,-71
2016-07-26T05:21:41.535Z,-71
2016-07-26T05:22:42.292Z,-71
2016-07-26T05:23:41.638Z,-74
2016-07-26T05:24:41.480Z,-71
2016-07-26T05:25:41.561Z,-70
2016-07-26T05:26:41.451Z,-71
2016-07-26T05:27:41.397Z,-71
2016-07-26T05:28:41.511Z,-71
2016-07-26T05:29:41.472Z,-71
2016-07-26T05:30:41.491Z,-71
2016-07-26T05:31:41.972Z,-71
2016-07-26T05:32:41.508Z,-71
2016-07-26T05:33:42.724Z,-71
2016-07-26T05:34:41.425Z,-69
2016-07-26T05:35:41.562Z,-68
2016-07-26T05:36:44.059Z,-70
2016-07-26T05:37:42.078Z,-71
2016-07-26T05:38:41.583Z,-69
2016-07-26T05:39:41.484Z,-69
2016-07-26T05:40:41.495Z,-70
2016-07-26T05:41:41.531Z,-72
2016-07-26T05:42:41.569Z,-72
2016-07-26T05:43:41.532Z,-70
2016-07-26T05:44:43.469Z,-72
2016-07-26T05:45:54.123Z,-73
2016-07-26T05:46:43.158Z,-73
2016-07-26T05:47:42.757Z,-73
2016-07-26T05:48:42.250Z,-73
2016-07-26T05:49:41.448Z,-73
2016-07-26T05:50:41.534Z,-72
2016-07-26T05:51:41.599Z,-72
2016-07-26T05:52:41.806Z,-74
2016-07-26T05:53:43.338Z,-73
2016-07-26T05:54:47.017Z,-74
2016-07-26T05:55:41.576Z,-74
2016-07-26T05:56:41.458Z,-74
2016-07-26T05:57:41.453Z,-74
2016-07-26T05:58:41.392Z,-74
2016-07-26T05:59:41.408Z,-73
2016-07-26T06:00:42.298Z,-74
2016-07-26T06:01:41.445Z,-74
2016-07-26T06:02:41.978Z,-74
2016-07-26T06:03:41.443Z,-74
2016-07-26T06:04:40.935Z,-74
2016-07-26T06:05:41.424Z,-74
2016-07-26T06:06:41.576Z,-74
2016-07-26T06:07:41.547Z,-74
2016-07-26T06:08:42.194Z,-74
2016-07-26T06:09:42.780Z,-74
2016-07-26T06:10:41.509Z,-73
2016-07-26T06:11:41.499Z,-73
2016-07-26T06:12:41.558Z,-73
2016-07-26T06:13:41.555Z,-73
2016-07-26T06:14:41.459Z,-73
2016-07-26T06:15:44.910Z,-73
2016-07-26T06:16:41.463Z,-73
2016-07-26T06:17:41.488Z,-76
2016-07-26T06:18:41.447Z,-74
2016-07-26T06:19:41.001Z,-74
2016-07-26T06:20:41.464Z,-74
2016-07-26T06:21:42.016Z,-74
2016-07-26T06:22:41.478Z,-74
2016-07-26T06:23:41.947Z,-74
2016-07-26T06:24:41.496Z,-74
2016-07-26T06:25:41.522Z,-76
2016-07-26T06:26:41.620Z,-74
2016-07-26T06:27:42.136Z,-74
2016-07-26T06:28:41.545Z,-74
2016-07-26T06:29:41.627Z,-74
2016-07-26T06:30:41.549Z,-74
2016-07-26T06:31:41.529Z,-74
2016-07-26T06:32:41.544Z,-74
2016-07-26T06:33:41.456Z,-74
2016-07-26T06:34:41.126Z,-74
2016-07-26T06:35:41.522Z,-74
2016-07-26T06:36:41.542Z,-74
2016-07-26T06:37:41.538Z,-74
2016-07-26T06:38:41.462Z,-74
2016-07-26T06:39:41.629Z,-74
2016-07-26T06:40:41.500Z,-74
2016-07-26T06:41:41.466Z,-74
2016-07-26T06:42:41.444Z,-74
2016-07-26T06:43:41.449Z,-74
2016-07-26T06:44:41.537Z,-74
2016-07-26T06:45:41.475Z,-74
2016-07-26T06:46:41.497Z,-75
2016-07-26T06:47:41.531Z,-74
2016-07-26T06:48:41.605Z,-74
2016-07-26T06:49:41.876Z,-74
2016-07-26T06:50:41.532Z,-74
2016-07-26T06:51:41.662Z,-74
2016-07-26T06:52:41.493Z,-74
2016-07-26T06:53:41.614Z,-74
2016-07-26T06:54:41.645Z,-74
2016-07-26T06:55:41.596Z,-74
2016-07-26T06:56:41.583Z,-73
2016-07-26T06:57:41.574Z,-76
2016-07-26T06:58:41.679Z,-75
2016-07-26T06:59:41.658Z,-74
2016-07-26T07:00:41.551Z,-75
2016-07-26T07:01:41.644Z,-75
2016-07-26T07:02:41.690Z,-74
2016-07-26T07:03:41.620Z,-76
2016-07-26T07:04:41.054Z,-76
2016-07-26T07:05:41.455Z,-73
2016-07-26T07:06:41.539Z,-76
2016-07-26T07:07:41.587Z,-73
2016-07-26T07:08:41.430Z,-74
2016-07-26T07:09:41.674Z,-76
2016-07-26T07:10:41.581Z,-75
2016-07-26T07:11:41.627Z,-73
2016-07-26T07:12:41.618Z,-75
2016-07-26T07:13:41.641Z,-73
2016-07-26T07:14:41.620Z,-73
2016-07-26T07:15:41.625Z,-73
2016-07-26T07:16:41.650Z,-73
2016-07-26T07:17:41.790Z,-73
2016-07-26T07:18:41.494Z,-75
2016-07-26T07:19:41.254Z,-73
2016-07-26T07:20:41.554Z,-73
2016-07-26T07:21:41.470Z,-73
2016-07-26T07:22:42.522Z,-73
2016-07-26T07:35:42.116Z,-73
2016-07-26T07:35:59.277Z,-73
2016-07-26T07:36:59.416Z,-74
2016-07-26T07:37:59.247Z,-73
2016-07-26T07:38:59.243Z,-73
2016-07-26T07:39:59.197Z,-75
2016-07-26T07:40:59.252Z,-75
2016-07-26T07:41:59.177Z,-73
2016-07-26T07:42:59.242Z,-75
2016-07-26T07:43:59.215Z,-73
2016-07-26T07:44:59.477Z,-73
2016-07-26T07:45:59.241Z,-73
2016-07-26T07:46:59.198Z,-73
2016-07-26T07:47:59.201Z,-73
2016-07-26T07:48:59.248Z,-75
2016-07-26T07:49:59.192Z,-73
2016-07-26T07:51:12.473Z,-73
2016-07-26T07:52:00.981Z,-75
2016-07-26T07:52:59.286Z,-75
2016-07-26T07:53:59.420Z,-73
2016-07-26T07:54:59.317Z,-73
2016-07-26T07:55:59.387Z,-73
2016-07-26T07:56:59.476Z,-75
2016-07-26T07:57:59.735Z,-76
2016-07-26T07:58:59.244Z,-73
2016-07-26T07:59:59.272Z,-74
2016-07-26T08:00:59.258Z,-74
2016-07-26T08:01:59.260Z,-74
2016-07-26T08:02:59.298Z,-73
2016-07-26T08:03:59.301Z,-78
2016-07-26T08:04:59.403Z,-74
2016-07-26T08:05:59.357Z,-73
2016-07-26T08:06:59.391Z,-74
2016-07-26T08:07:59.349Z,-74
2016-07-26T08:08:59.261Z,-74
2016-07-26T08:09:59.357Z,-74
2016-07-26T08:10:59.321Z,-74
2016-07-26T08:11:59.247Z,-74
2016-07-26T08:12:59.239Z,-74
2016-07-26T08:14:00.232Z,-73
2016-07-26T08:14:59.697Z,-74
2016-07-26T08:15:59.791Z,-73
2016-07-26T08:16:59.189Z,-73
2016-07-26T08:17:59.430Z,-73
2016-07-26T08:18:59.475Z,-73
2016-07-26T08:19:59.347Z,-73
2016-07-26T08:20:59.438Z,-73
2016-07-26T08:21:59.225Z,-73
2016-07-26T08:22:59.236Z,-73
2016-07-26T08:23:59.445Z,-73
2016-07-26T08:24:59.756Z,-76
2016-07-26T08:25:59.343Z,-73
2016-07-26T08:26:59.302Z,-73
2016-07-26T08:27:59.367Z,-73
2016-07-26T08:28:59.551Z,-73
2016-07-26T08:29:59.380Z,-73
2016-07-26T08:30:59.683Z,-76
2016-07-26T08:31:59.354Z,-76
2016-07-26T08:32:59.261Z,-74
2016-07-26T08:33:59.479Z,-74
2016-07-26T08:34:59.208Z,-74
2016-07-26T08:35:59.272Z,-74
2016-07-26T08:37:00.077Z,-75
2016-07-26T08:37:59.959Z,-77
2016-07-26T08:38:59.622Z,-75
2016-07-26T08:39:59.367Z,-75
2016-07-26T08:40:59.360Z,-75
2016-07-26T08:41:59.400Z,-75
2016-07-26T08:42:59.316Z,-75
2016-07-26T08:43:59.437Z,-75
2016-07-26T08:44:59.253Z,-75
2016-07-26T08:45:59.407Z,-75
2016-07-26T08:46:59.260Z,-76
2016-07-26T08:47:59.231Z,-75
2016-07-26T08:48:59.259Z,-79
2016-07-26T08:49:59.412Z,-75
2016-07-26T08:50:59.352Z,-75
2016-07-26T08:51:59.399Z,-75
2016-07-26T08:52:59.336Z,-74
2016-07-26T08:53:59.407Z,-74
2016-07-26T08:54:59.350Z,-74
2016-07-26T08:55:59.456Z,-75
2016-07-26T08:56:59.378Z,-74
2016-07-26T08:57:59.343Z,-75
2016-07-26T08:58:59.247Z,-75
2016-07-26T08:59:59.225Z,-75
2016-07-26T09:00:59.319Z,-75
2016-07-26T09:01:59.245Z,-74
2016-07-26T09:02:59.520Z,-75
2016-07-26T09:03:59.685Z,-74
2016-07-26T09:05:01.019Z,-76
2016-07-26T09:06:00.019Z,-74
2016-07-26T09:06:59.268Z,-73
2016-07-26T09:07:59.300Z,-73
2016-07-26T09:08:59.365Z,-73
2016-07-26T09:09:59.291Z,-73
2016-07-26T09:10:59.283Z,-73
2016-07-26T09:11:59.492Z,-73
2016-07-26T09:12:59.305Z,-73
2016-07-26T09:14:00.054Z,-73
2016-07-26T09:14:59.340Z,-76
2016-07-26T09:15:59.979Z,-74
2016-07-26T09:16:59.352Z,-74
2016-07-26T09:17:59.512Z,-76
2016-07-26T09:18:59.399Z,-76
2016-07-26T09:19:59.303Z,-76
2016-07-26T09:20:59.294Z,-74
2016-07-26T09:21:59.409Z,-74
2016-07-26T09:22:59.380Z,-76
2016-07-26T09:23:59.349Z,-73
2016-07-26T09:24:59.495Z,-74
2016-07-26T09:25:59.347Z,-76
2016-07-26T09:26:59.511Z,-75
2016-07-26T09:27:59.415Z,-76
2016-07-26T09:28:59.378Z,-75
2016-07-26T09:29:59.918Z,-77
2016-07-26T09:30:59.253Z,-76
2016-07-26T09:31:59.327Z,-75
2016-07-26T09:32:59.267Z,-75
2016-07-26T09:33:59.354Z,-75
2016-07-26T09:34:59.342Z,-75
2016-07-26T09:35:59.865Z,-75
2016-07-26T09:36:59.476Z,-75
2016-07-26T09:38:16.769Z,-77
2016-07-26T09:38:59.403Z,-73
2016-07-26T09:40:01.474Z,-79
2016-07-26T09:40:59.609Z,-75
2016-07-26T09:42:00.198Z,-75
2016-07-26T09:42:59.455Z,-75
2016-07-26T09:43:59.286Z,-73
2016-07-26T09:44:59.307Z,-73
2016-07-26T09:45:59.266Z,-73
2016-07-26T09:46:59.497Z,-75
2016-07-26T09:47:59.430Z,-75
2016-07-26T09:48:59.498Z,-75
2016-07-26T09:49:59.487Z,-75
2016-07-26T09:50:59.417Z,-75
2016-07-26T09:51:59.407Z,-75
2016-07-26T09:52:59.290Z,-75
2016-07-26T09:53:59.341Z,-75
2016-07-26T09:55:06.836Z,-78
2016-07-26T09:55:59.477Z,-73
2016-07-26T09:56:59.376Z,-73
2016-07-26T09:57:59.379Z,-75
2016-07-26T09:58:59.440Z,-75
2016-07-26T09:59:59.349Z,-75
2016-07-26T10:00:59.383Z,-75
2016-07-26T10:01:59.281Z,-75
2016-07-26T10:02:59.333Z,-75
2016-07-26T10:03:59.354Z,-75
2016-07-26T10:04:59.353Z,-75
2016-07-26T10:05:59.410Z,-75
2016-07-26T10:06:59.391Z,-75
2016-07-26T10:07:59.380Z,-75
2016-07-26T10:08:59.305Z,-75
2016-07-26T10:09:59.477Z,-75
2016-07-26T10:10:59.357Z,-75
2016-07-26T10:11:59.327Z,-74
2016-07-26T10:12:59.312Z,-74
2016-07-26T10:13:59.332Z,-74
2016-07-26T10:14:59.372Z,-74
2016-07-26T10:15:59.756Z,-76
2016-07-26T10:17:01.216Z,-75
2016-07-26T10:18:00.796Z,-74
2016-07-26T10:18:59.494Z,-74
2016-07-26T10:20:01.053Z,-74
2016-07-26T10:20:59.541Z,-74
2016-07-26T10:21:59.416Z,-74
2016-07-26T10:22:59.384Z,-75
2016-07-26T10:24:00.200Z,-75
2016-07-26T10:24:59.347Z,-75
2016-07-26T10:25:59.303Z,-74
2016-07-26T10:26:59.375Z,-75
2016-07-26T10:27:59.417Z,-74
2016-07-26T10:28:59.375Z,-74
2016-07-26T10:29:59.526Z,-74
2016-07-26T10:30:59.378Z,-74
2016-07-26T10:32:00.036Z,-75
2016-07-26T10:32:59.464Z,-77
2016-07-26T10:33:59.431Z,-77
2016-07-26T10:34:59.402Z,-74
2016-07-26T10:35:59.409Z,-74
2016-07-26T10:36:59.341Z,-76
2016-07-26T10:37:59.376Z,-74
2016-07-26T10:38:59.354Z,-74
2016-07-26T10:39:59.524Z,-73
2016-07-26T10:40:59.376Z,-74
2016-07-26T10:41:59.533Z,-76
2016-07-26T10:42:59.525Z,-74
2016-07-26T10:43:59.437Z,-74
2016-07-26T10:44:59.468Z,-75
2016-07-26T10:45:59.345Z,-75
2016-07-26T10:46:59.341Z,-75
2016-07-26T10:48:02.604Z,-74
2016-07-26T10:48:59.423Z,-75
2016-07-26T10:49:59.327Z,-75
2016-07-26T10:51:01.433Z,-75
2016-07-26T10:51:59.474Z,-75
2016-07-26T10:52:59.308Z,-74
2016-07-26T10:53:59.532Z,-74
2016-07-26T10:55:01.778Z,-76
2016-07-26T10:56:00.024Z,-75
2016-07-26T10:56:59.309Z,-73
2016-07-26T10:58:02.233Z,-74
2016-07-26T10:58:59.387Z,-76
2016-07-26T10:59:59.399Z,-74
2016-07-26T11:01:00.095Z,-76
2016-07-26T11:01:59.593Z,-76
2016-07-26T11:02:59.477Z,-74
2016-07-26T11:03:59.455Z,-76
2016-07-26T11:04:59.915Z,-74
2016-07-26T11:05:59.337Z,-74
2016-07-26T11:06:59.549Z,-76
2016-07-26T11:07:59.468Z,-75
2016-07-26T11:08:59.852Z,-76
2016-07-26T11:09:59.308Z,-73
2016-07-26T11:10:59.409Z,-73
2016-07-26T11:11:59.315Z,-74
2016-07-26T11:13:00.671Z,-75
2016-07-26T11:13:59.475Z,-75
2016-07-26T11:14:59.440Z,-74
2016-07-26T11:15:59.570Z,-76
2016-07-26T11:16:59.588Z,-73
2016-07-26T11:17:59.556Z,-73
2016-07-26T11:19:00.143Z,-76
2016-07-26T11:19:59.481Z,-73
2016-07-26T11:20:59.435Z,-73
2016-07-26T11:21:59.364Z,-73
2016-07-26T11:23:03.311Z,-76
2016-07-26T11:24:14.120Z,-74
2016-07-26T11:25:00.329Z,-74
2016-07-26T11:25:59.490Z,-74
2016-07-26T11:27:03.738Z,-75
2016-07-26T11:27:59.375Z,-75
2016-07-26T11:28:59.511Z,-74
2016-07-26T11:29:59.360Z,-74
2016-07-26T11:31:00.113Z,-74
2016-07-26T11:31:59.458Z,-75
2016-07-26T11:33:00.037Z,-74
2016-07-26T11:33:59.445Z,-74
2016-07-26T11:34:59.459Z,-75
2016-07-26T11:35:59.490Z,-75
2016-07-26T11:37:04.077Z,-75
2016-07-26T11:37:59.488Z,-75
2016-07-26T11:39:26.237Z,-79
2016-07-26T11:40:15.724Z,-75
2016-07-26T11:40:59.551Z,-74
2016-07-26T11:42:04.046Z,-75
2016-07-26T11:42:59.406Z,-74
2016-07-26T11:43:59.404Z,-74
2016-07-26T11:44:59.436Z,-74
2016-07-26T11:45:59.451Z,-74
2016-07-26T11:46:59.448Z,-74
2016-07-26T11:47:59.408Z,-75
2016-07-26T11:48:59.369Z,-74
2016-07-26T11:49:59.422Z,-75
2016-07-26T11:50:59.342Z,-75
2016-07-26T11:51:59.394Z,-76
2016-07-26T11:52:59.365Z,-76
2016-07-26T11:53:59.382Z,-75
2016-07-26T11:54:59.365Z,-75
2016-07-26T11:55:59.394Z,-75
2016-07-26T11:56:59.411Z,-75
2016-07-26T11:58:00.037Z,-74
2016-07-26T11:58:59.402Z,-75
2016-07-26T11:59:59.381Z,-75
2016-07-26T12:00:59.424Z,-74
2016-07-26T12:02:00.114Z,-74
2016-07-26T12:03:00.672Z,-74
2016-07-26T12:04:03.340Z,-74
2016-07-26T12:05:00.025Z,-74
2016-07-26T12:06:00.096Z,-75
2016-07-26T12:06:59.391Z,-75
2016-07-26T12:08:00.058Z,-75
2016-07-26T12:09:00.073Z,-74
2016-07-26T12:09:59.360Z,-75
2016-07-26T12:10:59.856Z,-74
2016-07-26T12:11:59.405Z,-75
2016-07-26T12:12:59.388Z,-74
2016-07-26T12:13:59.463Z,-75
2016-07-26T12:14:59.551Z,-74
2016-07-26T12:15:59.386Z,-74
2016-07-26T12:16:59.432Z,-74
2016-07-26T12:18:00.037Z,-74
2016-07-26T12:18:59.442Z,-75
2016-07-26T12:20:00.353Z,-75
2016-07-26T12:20:59.413Z,-74
2016-07-26T12:21:59.431Z,-74
2016-07-26T12:22:59.489Z,-74
2016-07-26T12:23:59.438Z,-74
2016-07-26T12:24:59.404Z,-74
2016-07-26T12:25:59.926Z,-74
2016-07-26T12:27:00.264Z,-74
2016-07-26T12:27:59.491Z,-74
2016-07-26T12:28:59.399Z,-76
2016-07-26T12:29:59.682Z,-73
2016-07-26T12:30:59.416Z,-73
2016-07-26T12:31:59.454Z,-74
2016-07-26T12:32:59.435Z,-73
2016-07-26T12:33:59.402Z,-74
2016-07-26T12:34:59.462Z,-73
2016-07-26T12:36:00.708Z,-76
2016-07-26T12:36:59.451Z,-76
2016-07-26T12:37:59.590Z,-76
2016-07-26T12:38:59.442Z,-74
2016-07-26T12:39:59.748Z,-76
2016-07-26T12:40:59.507Z,-74
2016-07-26T12:41:59.445Z,-74
2016-07-26T12:43:00.295Z,-76
2016-07-26T12:43:59.398Z,-74
2016-07-26T12:45:01.373Z,-75
2016-07-26T12:45:59.578Z,-75
2016-07-26T12:47:00.452Z,-75
2016-07-26T12:48:00.074Z,-75
2016-07-26T12:48:59.439Z,-75
2016-07-26T12:50:59.447Z,-74
2016-07-26T12:51:59.495Z,-75
2016-07-26T12:52:59.463Z,-74
2016-07-26T12:53:59.513Z,-74
2016-07-26T12:54:59.646Z,-75
2016-07-26T12:55:59.788Z,-75
2016-07-26T12:57:01.313Z,-74
2016-07-26T12:57:59.430Z,-76
2016-07-26T12:59:51.125Z,-78
2016-07-26T13:00:08.324Z,-75
2016-07-26T13:01:08.383Z,-75
2016-07-26T13:02:08.179Z,-75
2016-07-26T13:03:08.264Z,-75
2016-07-26T13:04:39.639Z,-75
2016-07-26T13:05:08.262Z,-74
2016-07-26T13:06:16.854Z,-76
2016-07-26T13:07:08.804Z,-75
2016-07-26T13:08:08.317Z,-74
2016-07-26T13:09:08.259Z,-73
2016-07-26T13:10:08.456Z,-76
2016-07-26T13:11:07.636Z,-73
2016-07-26T13:12:08.237Z,-73
2016-07-26T13:13:08.267Z,-73
2016-07-26T13:14:08.260Z,-73
2016-07-26T13:15:08.198Z,-73
2016-07-26T13:16:08.345Z,-73
2016-07-26T13:17:08.264Z,-73
2016-07-26T13:18:26.834Z,-73
2016-07-26T13:19:08.742Z,-73
2016-07-26T13:20:08.272Z,-75
2016-07-26T13:21:08.210Z,-75
2016-07-26T13:22:08.207Z,-75
2016-07-26T13:23:08.447Z,-76
2016-07-26T13:24:08.213Z,-75
2016-07-26T13:25:08.214Z,-75
2016-07-26T13:26:08.231Z,-74
2016-07-26T13:27:08.255Z,-74
2016-07-26T13:28:08.904Z,-75
2016-07-26T13:29:08.294Z,-74
2016-07-26T13:30:08.280Z,-74
2016-07-26T13:31:08.214Z,-74
2016-07-26T13:32:08.309Z,-74
2016-07-26T13:33:08.253Z,-74
2016-07-26T13:34:09.351Z,-76
2016-07-26T13:35:08.254Z,-73
2016-07-26T13:36:08.260Z,-73
2016-07-26T13:37:08.928Z,-73
2016-07-26T13:38:08.221Z,-73
2016-07-26T13:39:08.236Z,-73
2016-07-26T13:40:08.271Z,-73
2016-07-26T13:41:08.286Z,-73
2016-07-26T13:42:08.287Z,-74
2016-07-26T13:43:08.246Z,-74
2016-07-26T13:44:08.868Z,-74
2016-07-26T13:45:08.256Z,-74
2016-07-26T13:46:08.577Z,-74
2016-07-26T13:47:08.824Z,-74
2016-07-26T13:48:08.248Z,-74
2016-07-26T13:49:13.607Z,-76
2016-07-26T13:50:08.349Z,-76
2016-07-26T13:51:08.381Z,-73
2016-07-26T13:52:08.824Z,-73
2016-07-26T13:53:08.596Z,-73
2016-07-26T13:54:08.404Z,-73
2016-07-26T13:55:11.034Z,-77
2016-07-26T13:56:14.699Z,-74
2016-07-26T13:57:08.384Z,-74
2016-07-26T13:58:08.292Z,-74
2016-07-26T13:59:09.368Z,-74
2016-07-26T14:00:08.310Z,-75
2016-07-26T14:01:08.373Z,-74
2016-07-26T14:02:08.329Z,-74
2016-07-26T14:03:08.380Z,-74
2016-07-26T14:04:08.255Z,-76
2016-07-26T14:05:08.297Z,-74
2016-07-26T14:06:08.288Z,-74
2016-07-26T14:07:08.325Z,-74
2016-07-26T14:08:09.087Z,-74
2016-07-26T14:09:08.858Z,-76
2016-07-26T14:10:08.366Z,-73
2016-07-26T14:11:08.320Z,-73
2016-07-26T14:12:08.315Z,-73
2016-07-26T14:13:08.347Z,-73
2016-07-26T14:14:08.315Z,-73
2016-07-26T14:15:08.330Z,-76
2016-07-26T14:16:08.323Z,-73
2016-07-26T14:17:07.720Z,-73
2016-07-26T14:18:08.310Z,-73
2016-07-26T14:19:08.303Z,-75
2016-07-26T14:20:08.349Z,-75
2016-07-26T14:21:08.443Z,-75
2016-07-26T14:22:08.342Z,-77
2016-07-26T14:23:08.268Z,-75
2016-07-26T14:24:08.315Z,-75
2016-07-26T14:25:08.293Z,-75
2016-07-26T14:26:08.359Z,-74
2016-07-26T14:27:08.286Z,-75
2016-07-26T14:28:08.310Z,-75
2016-07-26T14:29:08.321Z,-74
2016-07-26T14:30:08.219Z,-74
2016-07-26T14:31:08.317Z,-74
2016-07-26T14:32:08.338Z,-76
2016-07-26T14:33:08.243Z,-74
2016-07-26T14:34:08.383Z,-74
2016-07-26T14:35:08.280Z,-74
2016-07-26T14:36:08.371Z,-75
2016-07-26T14:37:08.285Z,-74
2016-07-26T14:38:08.268Z,-74
2016-07-26T14:39:08.228Z,-74
2016-07-26T14:40:26.072Z,-78
2016-07-26T14:41:08.253Z,-73
2016-07-26T14:54:09.137Z,-76
2016-07-26T14:54:26.498Z,-77
2016-07-26T14:55:26.208Z,-75
2016-07-26T14:56:26.188Z,-75
2016-07-26T14:57:26.185Z,-75
2016-07-26T14:58:26.203Z,-75
2016-07-26T14:59:26.157Z,-75